Time;durP1;ratioP1;P1;durP2;ratioP2;P2;SDS_P1;SDS_P2;PMS_P1;PMS_P2;Temp;Humidity;BMP_temperature;BMP_pressure;BME280_temperature;BME280_humidity;BME280_pressure;Samples;Min_cycle;Max_cycle;Signal;HPM_P1;HPM_P2
2022/10/22 00:00:06;;;;;;;14.93;12.23;;;10.70;99.90;;;;;;5025270;28;20207;-68
2022/10/22 00:02:33;;;;;;;16.97;12.07;;;10.70;99.90;;;;;;5010267;28;20207;-69
2022/10/22 00:05:00;;;;;;;13.43;12.00;;;10.70;99.90;;;;;;5035693;28;20682;-70
2022/10/22 00:07:27;;;;;;;15.73;12.13;;;10.60;99.90;;;;;;5018015;28;20273;-70
2022/10/22 00:09:54;;;;;;;16.90;12.57;;;10.60;99.90;;;;;;5035609;28;20196;-68
2022/10/22 00:12:21;;;;;;;15.27;13.17;;;10.60;99.90;;;;;;5008148;28;20326;-68
2022/10/22 00:14:48;;;;;;;13.80;12.40;;;10.60;99.90;;;;;;5003477;28;20238;-67
2022/10/22 00:17:15;;;;;;;15.10;12.70;;;10.60;99.90;;;;;;5018250;28;20204;-67
2022/10/22 00:19:42;;;;;;;15.57;12.67;;;10.60;99.90;;;;;;5036246;28;20206;-68
2022/10/22 00:22:10;;;;;;;15.30;11.70;;;10.60;99.90;;;;;;5023842;28;20290;-67
2022/10/22 00:24:38;;;;;;;13.23;11.20;;;10.80;99.90;;;;;;5025966;28;20219;-67
2022/10/22 00:27:07;;;;;;;13.60;10.70;;;10.70;99.90;;;;;;5035428;28;20216;-66
2022/10/22 00:29:34;;;;;;;16.80;13.37;;;10.70;99.90;;;;;;5035635;28;20207;-67
2022/10/22 00:32:02;;;;;;;16.10;11.40;;;10.70;99.90;;;;;;5010451;28;20253;-67
2022/10/22 00:34:30;;;;;;;15.67;11.70;;;10.60;99.90;;;;;;5018437;28;20801;-66
2022/10/22 00:36:57;;;;;;;13.50;10.80;;;10.60;99.90;;;;;;5015667;28;20233;-66
2022/10/22 00:39:26;;;;;;;14.83;10.70;;;10.60;99.90;;;;;;5033873;28;20982;-67
2022/10/22 00:41:55;;;;;;;12.57;10.63;;;10.70;99.90;;;;;;5020815;28;20695;-66
2022/10/22 00:44:59;;;;;;;14.47;10.40;;;10.70;99.90;;;;;;5037764;28;20656;-69
2022/10/22 00:47:36;;;;;;;13.93;10.37;;;10.60;99.90;;;;;;5036197;28;20261;-67
2022/10/22 00:50:08;;;;;;;15.13;10.10;;;10.60;99.90;;;;;;5037691;28;20195;-66
2022/10/22 00:52:35;;;;;;;15.53;11.10;;;10.60;99.90;;;;;;5038814;28;20198;-67
2022/10/22 00:55:03;;;;;;;13.00;10.60;;;10.60;99.90;;;;;;5004668;28;20203;-69
2022/10/22 00:57:31;;;;;;;16.17;11.90;;;10.60;99.90;;;;;;5038225;28;20914;-69
2022/10/22 00:59:58;;;;;;;16.80;11.80;;;10.60;99.90;;;;;;5020886;28;20211;-69
2022/10/22 01:02:25;;;;;;;17.53;11.80;;;10.60;99.90;;;;;;5005464;28;20318;-69
2022/10/22 01:04:52;;;;;;;12.87;11.23;;;10.60;99.90;;;;;;5022741;28;20215;-69
2022/10/22 01:07:22;;;;;;;13.57;10.93;;;10.60;99.90;;;;;;5039771;28;20211;-66
2022/10/22 01:10:02;;;;;;;13.33;11.03;;;10.60;99.90;;;;;;5022397;28;20265;-67
2022/10/22 01:12:53;;;;;;;18.77;13.87;;;10.50;99.90;;;;;;5022614;28;20609;-70
2022/10/22 01:15:36;;;;;;;16.83;11.37;;;10.60;99.90;;;;;;5038117;28;20819;-69
2022/10/22 01:18:32;;;;;;;12.70;10.87;;;10.60;99.90;;;;;;5012809;28;20606;-68
2022/10/22 01:21:05;;;;;;;14.57;10.30;;;10.60;99.90;;;;;;5023648;28;20212;-69
2022/10/22 01:23:42;;;;;;;16.00;11.17;;;10.50;99.90;;;;;;5021463;28;20306;-68
2022/10/22 01:26:33;;;;;;;13.33;10.30;;;10.50;99.90;;;;;;5019854;28;20214;-68
2022/10/22 01:29:12;;;;;;;13.93;10.50;;;10.60;99.90;;;;;;5011851;28;20203;-68
2022/10/22 01:31:45;;;;;;;19.53;10.43;;;10.60;99.90;;;;;;5037472;28;20199;-68
2022/10/22 01:34:16;;;;;;;11.53;10.40;;;10.60;99.90;;;;;;5021970;28;20201;-70
2022/10/22 01:36:45;;;;;;;11.90;9.83;;;10.60;99.90;;;;;;5035533;28;20224;-70
2022/10/22 01:39:15;;;;;;;11.47;9.80;;;10.60;99.90;;;;;;5020631;28;20235;-70
2022/10/22 01:41:45;;;;;;;15.30;9.73;;;10.50;99.90;;;;;;5038678;28;20275;-70
2022/10/22 01:44:41;;;;;;;12.47;9.50;;;10.50;99.90;;;;;;5027868;28;20271;-67
2022/10/22 01:47:48;;;;;;;11.80;9.30;;;10.40;99.90;;;;;;5001771;28;20216;-67
2022/10/22 01:50:34;;;;;;;13.57;9.63;;;10.40;99.90;;;;;;5021674;28;20195;-67
2022/10/22 01:53:43;;;;;;;22.40;14.70;;;10.40;99.90;;;;;;5028428;28;20218;-67
2022/10/22 01:56:18;;;;;;;14.70;10.33;;;10.40;99.90;;;;;;5013981;28;20214;-70
2022/10/22 01:58:47;;;;;;;12.50;10.27;;;10.40;99.90;;;;;;5018703;28;20207;-70
2022/10/22 02:01:21;;;;;;;16.00;12.40;;;10.40;99.90;;;;;;5018257;28;20640;-70
2022/10/22 02:04:14;;;;;;;12.17;10.90;;;10.30;99.90;;;;;;5037442;28;20208;-71
2022/10/22 02:06:44;;;;;;;15.77;9.90;;;10.30;99.90;;;;;;5020184;28;20251;-70
2022/10/22 02:09:14;;;;;;;10.10;9.10;;;10.30;99.90;;;;;;5018541;28;20196;-69
2022/10/22 02:11:43;;;;;;;10.17;9.03;;;10.30;99.90;;;;;;5037263;28;20184;-70
2022/10/22 02:14:11;;;;;;;11.03;8.57;;;10.40;99.90;;;;;;5027559;28;20196;-70
2022/10/22 02:16:42;;;;;;;12.13;9.37;;;10.30;99.90;;;;;;5028016;28;20254;-69
2022/10/22 02:19:25;;;;;;;11.90;9.07;;;10.40;99.90;;;;;;5025230;28;20701;-68
2022/10/22 02:21:52;;;;;;;14.40;9.40;;;10.40;99.90;;;;;;5038342;28;20619;-69
2022/10/22 02:24:20;;;;;;;10.63;8.83;;;10.40;99.90;;;;;;5017335;28;20273;-70
2022/10/22 02:27:15;;;;;;;10.83;9.10;;;10.40;99.90;;;;;;5036973;28;20350;-69
2022/10/22 02:29:41;;;;;;;17.50;10.83;;;10.40;99.90;;;;;;5018422;28;20207;-70
2022/10/22 02:32:12;;;;;;;14.80;10.07;;;10.30;99.90;;;;;;5037590;28;20202;-70
2022/10/22 02:34:39;;;;;;;15.53;10.00;;;10.40;99.90;;;;;;5018459;28;20198;-69
2022/10/22 02:37:08;;;;;;;13.30;8.87;;;10.40;99.90;;;;;;5037875;28;20222;-70
2022/10/22 02:39:36;;;;;;;9.07;8.10;;;10.50;99.90;;;;;;5037183;28;20259;-67
2022/10/22 02:42:03;;;;;;;10.17;7.30;;;10.40;99.90;;;;;;5019359;28;20204;-69
2022/10/22 02:44:30;;;;;;;9.53;7.97;;;10.40;99.90;;;;;;5010634;28;20624;-70
2022/10/22 02:46:58;;;;;;;7.73;7.03;;;10.30;99.90;;;;;;5036772;28;20695;-71
2022/10/22 02:49:25;;;;;;;13.33;7.20;;;10.30;99.90;;;;;;5022986;28;20233;-68
2022/10/22 02:51:51;;;;;;;10.07;7.23;;;10.30;99.90;;;;;;5018197;28;20219;-68
2022/10/22 02:54:18;;;;;;;9.17;6.87;;;10.40;99.90;;;;;;5037208;28;21188;-62
2022/10/22 02:56:45;;;;;;;13.60;7.67;;;10.40;99.90;;;;;;5020867;28;20203;-67
2022/10/22 02:59:12;;;;;;;10.60;7.10;;;10.40;99.90;;;;;;5034170;28;20295;-64
2022/10/22 03:01:39;;;;;;;10.77;7.67;;;10.40;99.90;;;;;;5036088;28;20210;-62
2022/10/22 03:04:06;;;;;;;9.67;7.50;;;10.40;99.90;;;;;;5037879;28;20243;-63
2022/10/22 03:06:33;;;;;;;8.73;7.73;;;10.30;99.90;;;;;;5019793;28;20217;-61
2022/10/22 03:09:00;;;;;;;10.63;7.90;;;10.30;99.90;;;;;;5009434;28;20219;-61
2022/10/22 03:11:27;;;;;;;10.80;7.20;;;10.30;99.90;;;;;;5020161;28;20254;-62
2022/10/22 03:13:54;;;;;;;12.27;7.43;;;10.30;99.90;;;;;;5018245;28;20195;-61
2022/10/22 03:16:20;;;;;;;11.97;7.60;;;10.30;99.90;;;;;;5035243;28;20215;-61
2022/10/22 03:18:47;;;;;;;11.17;6.93;;;10.30;99.90;;;;;;5034288;28;20689;-63
2022/10/22 03:21:32;;;;;;;6.83;6.10;;;10.30;99.90;;;;;;5038279;28;20980;-62
2022/10/22 03:24:03;;;;;;;8.27;6.73;;;10.30;99.90;;;;;;5036695;28;20202;-61
2022/10/22 03:26:31;;;;;;;10.97;6.50;;;10.30;99.90;;;;;;5021938;28;20211;-64
2022/10/22 03:28:59;;;;;;;9.00;7.03;;;10.30;99.90;;;;;;5018162;28;20208;-62
2022/10/22 03:31:26;;;;;;;11.00;7.27;;;10.30;99.90;;;;;;5017210;28;20833;-62
2022/10/22 03:33:53;;;;;;;15.73;9.43;;;10.30;99.90;;;;;;5005994;28;20670;-62
2022/10/22 03:36:20;;;;;;;9.20;6.80;;;10.30;99.90;;;;;;5035684;28;20207;-64
2022/10/22 03:38:47;;;;;;;9.90;6.60;;;10.30;99.90;;;;;;5018875;28;20239;-62
2022/10/22 03:41:14;;;;;;;8.37;6.57;;;10.30;99.90;;;;;;5035847;28;20324;-62
2022/10/22 03:43:41;;;;;;;10.70;6.13;;;10.30;99.90;;;;;;5011106;28;20720;-63
2022/10/22 03:46:08;;;;;;;11.37;6.97;;;10.30;99.90;;;;;;5038135;28;20207;-62
2022/10/22 03:48:35;;;;;;;7.67;6.63;;;10.30;99.90;;;;;;5019424;28;20223;-63
2022/10/22 03:51:02;;;;;;;10.57;7.57;;;10.40;99.90;;;;;;5025944;28;20461;-62
2022/10/22 03:53:29;;;;;;;12.47;7.33;;;10.40;99.90;;;;;;5018974;28;20195;-63
2022/10/22 03:55:56;;;;;;;10.60;7.40;;;10.40;99.90;;;;;;5036271;28;20200;-63
2022/10/22 03:58:23;;;;;;;13.73;7.20;;;10.40;99.90;;;;;;5018392;28;20196;-64
2022/10/22 04:00:50;;;;;;;7.17;6.37;;;10.40;99.90;;;;;;5017379;28;20217;-62
2022/10/22 04:03:17;;;;;;;8.53;6.47;;;10.50;99.90;;;;;;5036159;28;20227;-63
2022/10/22 04:05:43;;;;;;;11.43;7.23;;;10.50;99.90;;;;;;5035671;28;20706;-63
2022/10/22 04:08:10;;;;;;;13.57;6.33;;;10.50;99.90;;;;;;5037345;28;20211;-62
2022/10/22 04:10:37;;;;;;;6.63;5.77;;;10.60;99.90;;;;;;5018045;28;20198;-63
2022/10/22 04:13:04;;;;;;;8.60;5.60;;;10.50;99.90;;;;;;5019960;28;20224;-63
2022/10/22 04:15:31;;;;;;;6.77;5.20;;;10.50;99.90;;;;;;5040234;28;20686;-64
2022/10/22 04:17:58;;;;;;;6.33;5.57;;;10.40;99.90;;;;;;5039169;28;20297;-63
2022/10/22 04:20:25;;;;;;;8.33;6.10;;;10.30;90.60;;;;;;5038429;28;20650;-62
2022/10/22 04:22:52;;;;;;;7.33;5.67;;;10.30;30.40;;;;;;5024825;28;20224;-63
2022/10/22 04:25:19;;;;;;;6.77;5.20;;;10.20;1.00;;;;;;5029951;28;20203;-63
2022/10/22 04:27:46;;;;;;;7.27;5.37;;;10.10;1.00;;;;;;5030595;28;20215;-62
2022/10/22 04:30:13;;;;;;;6.50;5.17;;;10.00;1.00;;;;;;5039421;28;20200;-64
2022/10/22 04:32:40;;;;;;;6.70;5.13;;;9.90;1.00;;;;;;5040429;28;20195;-63
2022/10/22 04:35:07;;;;;;;8.53;5.20;;;9.90;1.00;;;;;;5037841;28;20241;-62
2022/10/22 04:37:34;;;;;;;6.07;5.40;;;9.90;1.00;;;;;;5021251;28;20741;-63
2022/10/22 04:40:01;;;;;;;8.33;5.97;;;9.80;1.00;;;;;;5005726;28;20731;-62
2022/10/22 04:42:28;;;;;;;7.57;6.70;;;9.80;1.00;;;;;;5019839;28;20206;-64
2022/10/22 04:44:54;;;;;;;15.63;8.60;;;9.80;1.00;;;;;;5038903;28;20206;-63
2022/10/22 04:47:21;;;;;;;15.77;7.43;;;9.80;1.00;;;;;;5036319;28;20208;-62
2022/10/22 04:49:48;;;;;;;10.90;8.23;;;9.80;1.00;;;;;;5020794;28;20195;-64
2022/10/22 04:52:15;;;;;;;10.10;8.73;;;9.90;1.00;;;;;;5039189;28;20695;-63
2022/10/22 04:54:42;;;;;;;11.23;9.17;;;10.00;1.00;;;;;;5000694;28;20204;-64
2022/10/22 04:57:09;;;;;;;14.73;8.90;;;10.00;1.00;;;;;;5022375;28;20704;-64
2022/10/22 04:59:36;;;;;;;12.67;8.97;;;10.00;7.00;;;;;;5029063;28;20200;-64
2022/10/22 05:02:03;;;;;;;11.83;8.60;;;10.10;15.10;;;;;;5037250;28;20232;-64
2022/10/22 05:04:30;;;;;;;15.10;8.70;;;10.10;23.20;;;;;;5021738;28;20196;-65
2022/10/22 05:06:57;;;;;;;13.20;9.17;;;10.10;34.70;;;;;;5038859;28;20211;-64
2022/10/22 05:09:24;;;;;;;14.13;10.00;;;10.20;46.60;;;;;;5022951;28;20203;-65
2022/10/22 05:11:52;;;;;;;15.60;9.33;;;10.20;50.20;;;;;;5005079;28;20294;-63
2022/10/22 05:14:21;;;;;;;12.93;8.20;;;10.20;47.90;;;;;;5038839;28;20185;-65
2022/10/22 05:16:49;;;;;;;22.47;9.97;;;10.20;49.20;;;;;;5036678;28;20196;-66
2022/10/22 05:19:25;;;;;;;13.30;9.90;;;10.20;60.00;;;;;;5020543;28;20681;-63
2022/10/22 05:21:53;;;;;;;14.97;9.40;;;10.20;73.50;;;;;;5005220;28;20207;-63
2022/10/22 05:24:21;;;;;;;14.00;9.03;;;10.20;83.50;;;;;;5038201;28;20191;-63
2022/10/22 05:26:49;;;;;;;13.93;8.27;;;10.20;76.30;;;;;;5037933;28;20192;-63
2022/10/22 05:29:16;;;;;;;12.87;7.57;;;10.10;50.50;;;;;;5037920;28;20202;-63
2022/10/22 05:31:44;;;;;;;15.73;7.57;;;10.10;38.10;;;;;;5040292;28;20714;-64
2022/10/22 05:34:11;;;;;;;9.70;6.80;;;10.00;21.80;;;;;;5021341;28;20189;-63
2022/10/22 05:36:38;;;;;;;13.57;6.97;;;10.00;4.50;;;;;;5021763;28;20227;-62
2022/10/22 05:39:05;;;;;;;13.20;6.10;;;10.00;6.80;;;;;;5039067;28;20228;-62
2022/10/22 05:41:34;;;;;;;12.70;5.60;;;10.00;20.50;;;;;;5038892;28;20198;-63
2022/10/22 05:44:02;;;;;;;8.13;6.23;;;9.90;17.90;;;;;;5037851;28;20204;-66
2022/10/22 05:46:32;;;;;;;8.27;6.67;;;9.90;23.30;;;;;;5041331;28;20692;-63
2022/10/22 05:49:01;;;;;;;11.27;7.30;;;9.90;16.10;;;;;;5036720;28;20298;-63
2022/10/22 05:51:30;;;;;;;7.43;6.63;;;9.90;22.70;;;;;;5028905;28;20732;-63
2022/10/22 05:54:00;;;;;;;10.33;6.60;;;10.00;34.50;;;;;;5039711;28;20474;-65
2022/10/22 05:56:28;;;;;;;11.53;7.90;;;10.00;44.10;;;;;;5038163;28;20299;-62
2022/10/22 05:58:56;;;;;;;10.00;7.00;;;9.90;47.90;;;;;;5028233;28;20199;-64
2022/10/22 06:01:26;;;;;;;7.03;6.33;;;10.00;54.30;;;;;;5038391;28;20215;-63
2022/10/22 06:03:55;;;;;;;10.37;6.97;;;10.00;65.60;;;;;;5038123;28;20192;-63
2022/10/22 06:06:36;;;;;;;13.13;7.70;;;10.10;83.30;;;;;;5020954;28;20196;-63
2022/10/22 06:09:25;;;;;;;13.60;9.37;;;10.10;90.90;;;;;;5030155;28;20262;-63
2022/10/22 06:11:54;;;;;;;11.17;8.43;;;10.10;91.70;;;;;;5037041;28;20196;-62
2022/10/22 06:14:21;;;;;;;15.27;10.87;;;10.10;94.20;;;;;;5011063;28;20199;-64
2022/10/22 06:16:48;;;;;;;16.23;10.90;;;10.10;93.80;;;;;;5010742;28;20205;-63
2022/10/22 06:19:18;;;;;;;16.93;10.90;;;10.20;95.00;;;;;;5038073;28;20608;-62
2022/10/22 06:21:46;;;;;;;17.40;10.77;;;10.20;90.60;;;;;;5028193;28;20232;-62
2022/10/22 06:24:14;;;;;;;14.27;10.67;;;10.10;78.20;;;;;;5035561;28;20326;-63
2022/10/22 06:26:41;;;;;;;16.57;9.70;;;10.10;78.20;;;;;;5038826;28;20582;-63
2022/10/22 06:29:08;;;;;;;15.53;10.80;;;10.20;77.20;;;;;;5037634;28;20565;-63
2022/10/22 06:31:35;;;;;;;14.30;10.73;;;10.20;71.00;;;;;;5037972;28;20207;-63
2022/10/22 06:34:09;;;;;;;14.93;11.20;;;10.20;68.60;;;;;;5021578;28;20188;-63
2022/10/22 06:36:36;;;;;;;13.13;10.10;;;10.30;67.70;;;;;;5018976;28;20219;-62
2022/10/22 06:39:04;;;;;;;17.07;10.43;;;10.30;59.70;;;;;;5037647;28;20243;-62
2022/10/22 06:41:31;;;;;;;19.67;10.87;;;10.40;53.90;;;;;;5028208;28;20252;-62
2022/10/22 06:43:58;;;;;;;15.87;11.23;;;10.40;47.20;;;;;;5035204;28;20286;-63
2022/10/22 06:46:26;;;;;;;14.10;11.17;;;10.40;53.70;;;;;;5020420;28;20199;-63
2022/10/22 06:48:58;;;;;;;16.10;11.00;;;10.50;50.40;;;;;;5036074;28;20391;-63
2022/10/22 06:51:25;;;;;;;11.00;9.60;;;10.60;43.10;;;;;;5035623;28;20288;-62
2022/10/22 06:53:56;;;;;;;12.30;9.67;;;10.70;38.60;;;;;;5020121;28;20192;-64
2022/10/22 06:56:26;;;;;;;14.47;9.57;;;10.80;25.50;;;;;;5029669;28;20210;-63
2022/10/22 06:58:54;;;;;;;14.03;9.87;;;10.90;13.40;;;;;;5009333;28;20215;-63
2022/10/22 07:01:25;;;;;;;16.73;9.93;;;11.00;1.00;;;;;;5036939;28;20711;-62
2022/10/22 07:03:53;;;;;;;16.97;9.10;;;11.10;1.00;;;;;;5019345;28;20679;-63
2022/10/22 07:06:21;;;;;;;11.20;8.87;;;11.10;1.00;;;;;;5009159;28;20200;-62
2022/10/22 07:08:48;;;;;;;10.60;8.67;;;11.20;1.00;;;;;;5017903;28;20257;-63
2022/10/22 07:11:17;;;;;;;13.13;9.17;;;11.40;1.00;;;;;;5021897;28;20206;-63
2022/10/22 07:13:44;;;;;;;12.37;9.40;;;11.40;1.00;;;;;;5032984;28;20605;-62
2022/10/22 07:16:12;;;;;;;15.50;11.13;;;11.50;99.90;;;;;;5037974;28;20195;-62
2022/10/22 07:18:42;;;;;;;33.60;23.00;;;11.60;31.00;;;;;;5018436;28;20196;-62
2022/10/22 07:21:10;;;;;;;28.37;21.60;;;11.70;1.00;;;;;;5017061;28;20215;-61
2022/10/22 07:23:38;;;;;;;41.77;25.63;;;11.90;1.00;;;;;;5035538;28;20745;-63
2022/10/22 07:26:06;;;;;;;29.90;20.87;;;12.00;99.90;;;;;;5036026;28;20318;-63
2022/10/22 07:28:35;;;;;;;29.70;19.77;;;12.10;1.00;;;;;;5020854;28;20281;-63
2022/10/22 07:31:02;;;;;;;37.13;24.67;;;12.20;99.90;;;;;;5036844;28;20678;-62
2022/10/22 07:33:29;;;;;;;37.07;26.10;;;12.50;1.00;;;;;;5036672;28;20219;-62
2022/10/22 07:35:58;;;;;;;27.42;20.00;;;12.90;1.00;;;;;;5032506;28;20227;-63
2022/10/22 07:38:26;;;;;;;17.60;12.60;;;13.20;99.90;;;;;;5025222;28;20227;-63
2022/10/22 07:40:53;;;;;;;19.60;15.40;;;13.40;99.90;;;;;;5036229;28;20189;-63
2022/10/22 07:43:20;;;;;;;17.05;12.48;;;13.50;99.90;;;;;;5035721;28;20282;-63
2022/10/22 07:45:47;;;;;;;22.92;12.77;;;13.70;1.00;;;;;;5034938;28;20274;-62
2022/10/22 07:48:14;;;;;;;20.83;11.50;;;13.80;99.90;;;;;;5017603;28;20223;-63
2022/10/22 07:50:41;;;;;;;13.50;9.10;;;13.90;99.90;;;;;;5021243;28;20210;-62
2022/10/22 07:53:13;;;;;;;13.40;8.77;;;14.10;1.00;;;;;;5029897;28;20189;-63
2022/10/22 07:55:40;;;;;;;12.38;8.07;;;14.30;1.00;;;;;;5039621;28;20282;-63
2022/10/22 07:58:07;;;;;;;11.40;7.13;;;14.50;1.00;;;;;;5020510;28;20317;-62
2022/10/22 08:00:34;;;;;;;13.88;6.97;;;14.80;1.00;;;;;;5028582;28;21093;-63
2022/10/22 08:03:01;;;;;;;8.52;6.35;;;15.30;9.50;;;;;;5021956;28;20212;-62
2022/10/22 08:05:28;;;;;;;8.25;5.40;;;15.80;58.80;;;;;;5029066;28;20391;-61
2022/10/22 08:07:55;;;;;;;6.32;4.57;;;16.10;99.90;;;;;;5038174;28;20231;-61
2022/10/22 08:10:22;;;;;;;12.05;4.63;;;16.30;1.00;;;;;;5039489;28;20195;-63
2022/10/22 08:12:49;;;;;;;6.57;4.30;;;16.40;1.00;;;;;;5039550;28;20226;-62
2022/10/22 08:15:16;;;;;;;7.78;4.85;;;16.50;1.00;;;;;;5029717;28;20192;-63
2022/10/22 08:17:43;;;;;;;6.30;3.70;;;16.40;1.00;;;;;;5035502;28;20730;-62
2022/10/22 08:20:10;;;;;;;10.23;4.03;;;16.50;1.00;;;;;;5029247;28;20202;-63
2022/10/22 08:22:37;;;;;;;10.35;3.83;;;16.50;99.90;;;;;;5038556;28;20191;-63
2022/10/22 08:25:05;;;;;;;7.82;3.83;;;16.60;99.90;;;;;;5039415;28;20308;-62
2022/10/22 08:27:32;;;;;;;6.22;3.20;;;16.70;99.90;;;;;;5011535;28;20563;-63
2022/10/22 08:29:58;;;;;;;9.35;3.72;;;16.90;48.70;;;;;;5036236;28;20201;-63
2022/10/22 08:32:26;;;;;;;7.38;2.80;;;17.20;1.00;;;;;;5037070;28;20299;-62
2022/10/22 08:34:52;;;;;;;10.68;3.38;;;17.40;1.00;;;;;;5037042;28;20215;-64
2022/10/22 08:37:19;;;;;;;9.13;3.45;;;17.40;1.00;;;;;;5038150;28;20212;-62
2022/10/22 08:39:46;;;;;;;6.70;2.80;;;17.30;1.00;;;;;;5021739;28;20610;-64
2022/10/22 08:43:20;;;;;;;5.28;3.03;;;17.30;1.00;;;;;;5020577;28;20262;-64
2022/10/22 08:45:58;;;;;;;5.07;2.67;;;17.30;1.00;;;;;;4964882;28;20677;-62
2022/10/22 08:48:51;;;;;;;9.38;2.85;;;17.60;99.90;;;;;;4977381;28;20696;-62
2022/10/22 08:51:31;;;;;;;6.80;2.38;;;20.20;12.30;;;;;;5011520;28;20689;-63
2022/10/22 08:54:16;;;;;;;6.25;2.50;;;24.70;1.00;;;;;;5020759;28;20294;-62
2022/10/22 08:56:51;;;;;;;8.48;2.38;;;26.10;1.00;;;;;;5011493;28;20193;-62
2022/10/22 08:59:42;;;;;;;11.82;3.22;;;29.10;1.00;;;;;;5035280;28;20196;-66
2022/10/22 09:02:34;;;;;;;5.63;2.10;;;29.40;1.00;;;;;;5038069;28;20196;-62
2022/10/22 09:05:28;;;;;;;7.93;1.75;;;28.30;1.00;;;;;;5022250;28;20207;-61
2022/10/22 09:07:56;;;;;;;4.55;2.20;;;27.20;1.00;;;;;;5037503;28;20230;-63
2022/10/22 09:10:31;;;;;;;8.07;2.40;;;28.90;1.00;;;;;;5035595;28;20184;-64
2022/10/22 09:12:58;;;;;;;9.38;2.63;;;28.40;1.00;;;;;;5037022;28;20280;-64
2022/10/22 09:15:26;;;;;;;5.40;2.75;;;28.00;1.00;;;;;;5021908;28;21194;-65
2022/10/22 09:17:59;;;;;;;5.05;2.17;;;28.60;1.00;;;;;;5027996;28;20207;-63
2022/10/22 09:20:48;;;;;;;5.43;2.25;;;28.30;1.00;;;;;;5028341;28;20210;-63
2022/10/22 09:23:30;;;;;;;5.22;2.20;;;25.10;1.00;;;;;;5022189;28;20214;-63
2022/10/22 09:25:58;;;;;;;10.85;2.20;;;24.10;1.00;;;;;;5021134;28;20302;-63
2022/10/22 09:28:25;;;;;;;5.82;2.30;;;22.00;1.00;;;;;;5037208;28;20853;-62
2022/10/22 09:30:52;;;;;;;9.32;2.53;;;23.90;1.00;;;;;;5026241;28;20200;-63
2022/10/22 09:33:27;;;;;;;7.47;2.28;;;22.60;1.00;;;;;;5027919;28;20564;-62
2022/10/22 09:35:58;;;;;;;9.52;2.22;;;21.50;1.00;;;;;;5020533;28;20231;-64
2022/10/22 09:38:40;;;;;;;5.78;1.95;;;20.70;1.00;;;;;;5039158;28;20255;-62
2022/10/22 09:41:08;;;;;;;7.80;2.60;;;20.40;1.00;;;;;;5038833;28;20283;-63
2022/10/22 09:43:35;;;;;;;8.13;2.10;;;20.60;1.00;;;;;;5003712;28;20675;-65
2022/10/22 09:46:04;;;;;;;6.95;2.53;;;21.00;1.00;;;;;;5022510;28;20210;-62
2022/10/22 09:48:38;;;;;;;11.30;2.90;;;20.90;1.00;;;;;;5037779;28;20203;-63
2022/10/22 09:51:34;;;;;;;9.10;2.30;;;20.10;1.00;;;;;;5036781;28;20204;-65
2022/10/22 09:54:13;;;;;;;6.63;2.42;;;19.60;1.00;;;;;;5038747;28;20196;-61
2022/10/22 09:56:40;;;;;;;7.00;2.50;;;19.60;1.00;;;;;;5027888;28;20250;-62
2022/10/22 09:59:15;;;;;;;10.95;2.30;;;19.30;1.00;;;;;;5037092;28;20236;-64
2022/10/22 10:01:43;;;;;;;8.18;2.30;;;19.00;1.00;;;;;;5028289;28;20222;-62
2022/10/22 10:04:13;;;;;;;14.05;2.63;;;18.60;1.00;;;;;;5027584;28;20593;-63
2022/10/22 10:06:42;;;;;;;7.30;2.53;;;18.30;1.00;;;;;;5021294;28;20204;-62
2022/10/22 10:09:22;;;;;;;8.02;2.22;;;18.20;1.00;;;;;;5038093;28;20234;-63
2022/10/22 10:12:07;;;;;;;10.80;2.42;;;18.20;1.00;;;;;;5001412;28;20214;-63
2022/10/22 10:14:39;;;;;;;8.52;3.00;;;18.10;1.00;;;;;;5021223;28;20260;-65
2022/10/22 10:17:11;;;;;;;12.02;2.75;;;17.90;1.00;;;;;;5037290;28;20200;-63
2022/10/22 10:19:53;;;;;;;11.23;2.58;;;17.80;1.00;;;;;;5027534;28;20196;-63
2022/10/22 10:22:54;;;;;;;7.97;3.03;;;17.70;1.00;;;;;;5036211;28;20242;-62
2022/10/22 10:25:42;;;;;;;5.55;2.15;;;17.80;1.00;;;;;;5035330;28;20199;-62
2022/10/22 10:28:31;;;;;;;6.70;2.40;;;17.90;1.00;;;;;;5019958;28;20195;-63
2022/10/22 10:31:03;;;;;;;6.80;2.13;;;18.00;1.00;;;;;;5037315;28;20188;-64
2022/10/22 10:33:45;;;;;;;6.82;2.60;;;18.40;1.00;;;;;;5022261;28;20200;-63
2022/10/22 10:36:34;;;;;;;5.40;2.22;;;18.70;1.00;;;;;;5035950;28;20737;-62
2022/10/22 10:39:10;;;;;;;11.32;2.40;;;19.10;1.00;;;;;;5015602;28;20330;-63
2022/10/22 10:42:13;;;;;;;5.40;2.65;;;19.80;1.00;;;;;;5012125;28;20289;-63
2022/10/22 10:45:13;;;;;;;5.97;2.40;;;21.00;1.00;;;;;;5007317;28;20217;-63
2022/10/22 10:47:55;;;;;;;6.53;2.25;;;21.60;1.00;;;;;;4997701;28;20207;-64
2022/10/22 10:50:49;;;;;;;8.88;2.40;;;21.50;1.00;;;;;;5021395;28;20208;-63
2022/10/22 10:53:45;;;;;;;4.07;1.92;;;21.80;1.00;;;;;;5020634;28;20674;-62
2022/10/22 10:56:27;;;;;;;7.68;2.38;;;21.20;1.00;;;;;;5007885;28;20228;-63
2022/10/22 10:59:09;;;;;;;9.88;2.63;;;20.00;1.00;;;;;;5037692;28;20676;-63
2022/10/22 11:01:53;;;;;;;5.90;2.28;;;19.10;1.00;;;;;;5036952;28;20192;-63
2022/10/22 11:04:32;;;;;;;9.50;2.38;;;18.50;1.00;;;;;;5036219;28;20666;-64
2022/10/22 11:07:04;;;;;;;8.88;2.95;;;18.10;1.00;;;;;;5032857;28;20206;-65
2022/10/22 11:10:13;;;;;;;4.65;2.20;;;17.90;1.00;;;;;;5025062;28;20274;-63
2022/10/22 11:12:47;;;;;;;7.55;2.20;;;17.80;1.00;;;;;;5028449;28;20326;-63
2022/10/22 11:15:23;;;;;;;8.57;2.83;;;17.70;1.00;;;;;;5019254;28;20199;-63
2022/10/22 11:17:54;;;;;;;12.48;2.85;;;17.70;1.00;;;;;;5020137;28;20725;-61
2022/10/22 11:20:49;;;;;;;8.02;2.85;;;17.70;1.00;;;;;;5037462;28;20659;-64
2022/10/22 11:23:31;;;;;;;6.97;2.72;;;17.70;1.00;;;;;;5021137;28;20211;-62
2022/10/22 11:26:00;;;;;;;6.40;2.15;;;17.70;1.00;;;;;;5009695;28;20235;-63
2022/10/22 11:28:34;;;;;;;8.27;2.55;;;17.50;1.00;;;;;;5038078;28;20202;-63
2022/10/22 11:31:05;;;;;;;8.45;2.50;;;17.50;1.00;;;;;;5037516;28;20270;-63
2022/10/22 11:33:56;;;;;;;7.95;2.00;;;17.40;1.00;;;;;;5036986;28;21006;-62
2022/10/22 11:36:37;;;;;;;11.73;2.50;;;17.40;1.00;;;;;;5018881;28;20342;-62
2022/10/22 11:39:04;;;;;;;6.97;1.90;;;17.40;1.00;;;;;;5018969;28;20224;-63
2022/10/22 11:41:33;;;;;;;8.68;2.13;;;17.50;1.00;;;;;;5017633;28;20671;-64
2022/10/22 11:44:06;;;;;;;7.03;2.00;;;17.40;1.00;;;;;;5035243;28;20206;-63
2022/10/22 11:46:43;;;;;;;5.63;2.00;;;17.50;1.00;;;;;;5034633;28;20200;-63
2022/10/22 11:49:13;;;;;;;8.23;1.92;;;17.60;1.00;;;;;;5034350;28;20585;-62
2022/10/22 11:51:42;;;;;;;8.27;2.15;;;17.60;1.00;;;;;;5035978;28;20191;-61
2022/10/22 11:54:30;;;;;;;4.82;1.70;;;17.50;1.00;;;;;;5035953;28;20202;-61
2022/10/22 11:57:19;;;;;;;8.15;2.00;;;17.50;1.00;;;;;;5021952;28;20274;-66
2022/10/22 11:59:46;;;;;;;8.18;2.35;;;17.60;1.00;;;;;;5018489;28;20314;-63
2022/10/22 12:02:43;;;;;;;7.50;1.70;;;17.80;1.00;;;;;;5004575;28;20683;-63
2022/10/22 12:05:23;;;;;;;7.95;2.05;;;18.20;1.00;;;;;;5033050;28;20551;-62
2022/10/22 12:07:57;;;;;;;3.33;1.58;;;18.50;1.00;;;;;;5037642;28;20195;-63
2022/10/22 12:10:28;;;;;;;5.80;1.65;;;18.70;1.00;;;;;;5018492;28;20212;-62
2022/10/22 12:13:09;;;;;;;6.53;1.50;;;18.60;1.00;;;;;;5020309;28;20790;-63
2022/10/22 12:15:50;;;;;;;5.28;1.77;;;18.60;1.00;;;;;;5036327;28;20195;-63
2022/10/22 12:18:17;;;;;;;3.30;1.80;;;18.70;1.00;;;;;;5027510;28;20192;-62
2022/10/22 12:20:50;;;;;;;5.75;1.85;;;18.80;1.00;;;;;;5019003;28;20290;-63
2022/10/22 12:23:17;;;;;;;6.57;2.08;;;18.70;1.00;;;;;;5036625;28;20663;-62
2022/10/22 12:25:44;;;;;;;5.68;1.42;;;18.50;1.00;;;;;;5036286;28;20202;-62
2022/10/22 12:28:11;;;;;;;4.35;1.55;;;18.40;1.00;;;;;;5019309;28;20783;-63
2022/10/22 12:30:40;;;;;;;6.40;1.83;;;18.30;1.00;;;;;;5037126;28;20208;-64
2022/10/22 12:33:16;;;;;;;4.85;1.58;;;18.30;1.00;;;;;;5025347;28;20195;-64
2022/10/22 12:35:45;;;;;;;6.65;1.80;;;18.10;1.00;;;;;;5020839;28;20221;-61
2022/10/22 12:38:13;;;;;;;3.50;1.58;;;18.20;1.00;;;;;;5021451;28;20264;-63
2022/10/22 12:40:40;;;;;;;5.22;1.40;;;18.20;1.00;;;;;;5001476;28;20203;-64
2022/10/22 12:43:17;;;;;;;3.60;1.55;;;18.10;1.00;;;;;;5015144;28;20709;-63
2022/10/22 12:45:48;;;;;;;4.32;1.58;;;18.10;1.00;;;;;;5023726;28;20230;-62
2022/10/22 12:48:24;;;;;;;4.18;1.63;;;18.20;1.00;;;;;;5038569;28;20275;-64
2022/10/22 12:50:53;;;;;;;3.78;1.60;;;18.20;1.00;;;;;;5039923;28;20219;-66
2022/10/22 12:53:31;;;;;;;3.78;1.25;;;18.10;1.00;;;;;;5029348;28;20192;-62
2022/10/22 12:56:05;;;;;;;10.18;2.03;;;18.00;1.00;;;;;;5039743;28;20243;-62
2022/10/22 12:58:41;;;;;;;4.43;1.65;;;17.80;1.00;;;;;;5037645;28;20400;-61
2022/10/22 13:01:11;;;;;;;6.50;2.00;;;17.90;1.00;;;;;;5029506;28;20239;-62
2022/10/22 13:03:49;;;;;;;7.50;1.70;;;18.00;1.00;;;;;;5030380;28;20192;-63
2022/10/22 13:06:19;;;;;;;4.05;1.75;;;18.20;1.00;;;;;;5028455;28;20211;-63
2022/10/22 13:08:58;;;;;;;6.15;1.50;;;18.10;1.00;;;;;;5021987;28;20210;-63